Have a Safe July 4th! 

Flight Track Log - Related Links

Times and Time Zones

All times are in EDT time to prevent confusion due to time zone crossing. See the EJA727 flight status page for this flight to view local times or setup timezone preferences in your user account.

Time Position Orientation Groundspeed Altitude Reporting Facility
EDT Latitude Longitude Course Direction KTS MPH feet Rate Location/Type
Tue 12:27:36 AM 32.8639 -79.9867 13° North 269 310 5,300  Level Jacksonville Center
Tue 12:28:36 AM 32.9314 -79.9350 33° Northeast 308 354 9,400 2,350 Climbing Jacksonville Center
Tue 12:29:36 AM 33.0294 -79.9342 360° North 313 360 10,000 1,100 Climbing Jacksonville Center
Tue 12:30:36 AM 33.1278 -79.9361 359° North 335 386 11,600 2,350 Climbing Jacksonville Center
Tue 12:31:36 AM 33.2181 -79.8708 31° Northeast 357 411 14,700 3,050 Climbing Jacksonville Center
Tue 12:32:00 AM 33.5610 -79.8350 13° North  Level FlightAware Approximate
Tue 12:32:36 AM 33.3081 -79.7933 36° Northeast 369 425 17,700  Level Jacksonville Center
Tue 12:33:00 AM 33.6746 -79.8025 13° North  Level FlightAware Approximate
Tue 12:33:36 AM 33.4039 -79.7103 36° Northeast 395 455 20,100  Level Jacksonville Center
Tue 12:34:36 AM 33.5000 -79.6297 35° Northeast 413 475 22,000 1,700 Climbing Jacksonville Center
Tue 12:35:36 AM 33.6022 -79.5486 33° Northeast 427 491 23,500 1,450 Climbing Jacksonville Center
Tue 12:36:36 AM 33.7064 -79.4647 34° Northeast 437 503 24,900 1,500 Climbing Jacksonville Center
Tue 12:37:36 AM 33.8086 -79.3833 33° Northeast 437 503 26,500 1,550 Climbing Jacksonville Center
Tue 12:38:36 AM 33.9208 -79.2964 33° Northeast 453 521 28,000 1,463 Climbing Jacksonville Center
Tue 12:40:16 AM 34.1022 -79.1481 34° Northeast 481 554 30,400 1,463 Climbing Washington Center
Tue 12:41:16 AM 34.2111 -79.0625 33° Northeast 476 548 31,900 1,488 Climbing Washington Center
Tue 12:42:17 AM 34.3203 -78.9739 34° Northeast 471 542 33,400 1,513 Climbing Washington Center
Tue 12:43:15 AM 34.4311 -78.8881 33° Northeast 471 542 34,900 1,513 Climbing Washington Center
Tue 12:44:16 AM 34.5400 -78.7939 35° Northeast 471 542 36,400 1,600 Climbing Washington Center
Tue 12:45:15 AM 34.6572 -78.6975 34° Northeast 471 542 38,100 1,563 Climbing Washington Center
Tue 12:46:15 AM 34.7489 -78.6228 34° Northeast 461 531 39,500 1,250 Climbing Washington Center
Tue 12:47:15 AM 34.8511 -78.5381 34° Northeast 456 525 40,600 750 Climbing Washington Center
Tue 12:48:15 AM 34.9683 -78.4408 34° Northeast 455 524 41,000 198 Climbing Washington Center
Tue 12:49:16 AM 35.0769 -78.3508 34° Northeast 460 529 41,000  Level Washington Center
Tue 12:50:15 AM 35.1875 -78.2606 34° Northeast 465 535 41,000  Level Washington Center
Tue 12:51:15 AM 35.2936 -78.1700 35° Northeast 465 535 41,000  Level Washington Center
Tue 12:52:17 AM 35.4042 -78.0792 34° Northeast 470 541 41,000  Level Washington Center
Tue 12:53:14 AM 35.5125 -77.9881 34° Northeast 470 541 41,000  Level Washington Center
Tue 12:54:15 AM 35.6228 -77.8944 35° Northeast 470 541 41,000  Level Washington Center
Tue 12:55:15 AM 35.7286 -77.8078 34° Northeast 470 541 41,000  Level Washington Center
Tue 12:56:17 AM 35.8367 -77.7186 34° Northeast 470 541 41,000  Level Washington Center
Tue 12:57:16 AM 35.9425 -77.6292 34° Northeast 470 541 41,000  Level Washington Center
Tue 12:58:16 AM 36.0483 -77.5394 34° Northeast 470 541 41,000  Level Washington Center
Tue 12:59:15 AM 36.1564 -77.4469 35° Northeast 470 541 41,000  Level Washington Center
Tue 01:00:15 AM 36.2472 -77.3639 36° Northeast 452 520 41,000  Level Washington Center
Tue 01:01:15 AM 36.3550 -77.2761 33° Northeast 452 520 41,000  Level Washington Center
Tue 01:02:14 AM 36.4606 -77.1828 35° Northeast 458 527 41,000  Level Washington Center
Tue 01:03:15 AM 36.5681 -77.0894 35° Northeast 458 527 41,000  Level Washington Center
Tue 01:04:16 AM 36.6736 -76.9956 35° Northeast 458 527 41,000  Level Washington Center
Tue 01:05:16 AM 36.7811 -76.9014 35° Northeast 464 534 41,000  Level Washington Center
Tue 01:06:14 AM 36.8906 -76.8072 35° Northeast 464 534 41,000  Level Washington Center
Tue 01:07:16 AM 37.0064 -76.6997 37° Northeast 469 540 41,000  Level Washington Center
Tue 01:08:14 AM 37.1136 -76.6050 35° Northeast 474 545 41,000  Level Washington Center
Tue 01:09:14 AM 37.2206 -76.5125 35° Northeast 474 545 41,000  Level Washington Center
Tue 01:10:14 AM 37.3278 -76.4197 35° Northeast 474 545 41,000  Level Washington Center
Tue 01:11:15 AM 37.4325 -76.3242 36° Northeast 474 545 41,000  Level Washington Center
Tue 01:12:15 AM 37.5394 -76.2308 35° Northeast 474 545 41,000  Level Washington Center
Tue 01:13:14 AM 37.6381 -76.1531 32° Northeast 469 540 41,000  Level Washington Center
Tue 01:14:14 AM 37.7406 -76.0592 36° Northeast 463 533 41,000  Level Washington Center
Tue 01:15:15 AM 37.8494 -75.9494 38° Northeast 457 526 41,000  Level Washington Center
Tue 01:16:14 AM 37.9519 -75.8578 35° Northeast 452 520 41,000  Level Washington Center
Tue 01:17:15 AM 38.0478 -75.7736 35° Northeast 452 520 41,000  Level Washington Center
Tue 01:18:16 AM 38.1522 -75.6764 36° Northeast 457 526 41,000  Level Washington Center
Tue 01:19:14 AM 38.2564 -75.5811 36° Northeast 457 526 41,000  Level Washington Center
Tue 01:20:16 AM 38.3608 -75.4883 35° Northeast 452 520 41,000  Level Washington Center
Tue 01:21:15 AM 38.4628 -75.3928 36° Northeast 452 520 41,000 -50 Level Washington Center
Tue 01:22:17 AM 38.5669 -75.2944 36° Northeast 452 520 40,900 -942 Descending Washington Center
Tue 01:23:16 AM 38.6708 -75.1981 36° Northeast 459 528 39,100 -1,831 Descending Washington Center
Tue 01:24:15 AM 38.7767 -75.0964 37° Northeast 464 534 37,300 -1,916 Descending Washington Center
Tue 01:25:15 AM 38.8847 -74.9889 38° Northeast 476 548 35,300 -1,983 Descending Washington Center
Tue 01:26:16 AM 38.9925 -74.8811 38° Northeast 482 555 33,300 -2,017 Descending Washington Center
Tue 01:27:14 AM 39.0981 -74.7786 37° Northeast 482 555 31,300 -2,200 Descending Washington Center
Tue 01:28:16 AM 39.2181 -74.6567 38° Northeast 488 562 28,900 -2,064 Descending Washington Center
Tue 01:29:51 AM 39.3944 -74.4836 37° Northeast 488 562 25,900 -1,671 Descending New York Center
Tue 01:30:54 AM 39.5083 -74.3711 37° Northeast 500 575 24,500 -992 Descending New York Center
Tue 01:31:52 AM 39.6181 -74.2581 38° Northeast 500 575 23,900 -769 Descending New York Center
Tue 01:32:51 AM 39.7278 -74.1422 39° Northeast 500 575 23,000 -450 Descending New York Center
Tue 01:33:52 AM 39.8353 -74.0283 39° Northeast 500 575 23,000 -627 Level New York Center
Tue 01:36:31 AM 40.1006 -73.7422 39° Northeast 500 575 20,700 -1,123 Descending Boston Center
Tue 01:37:31 AM 40.2058 -73.6356 38° Northeast 434 499 18,900 -1,500 Descending Boston Center
Tue 01:38:31 AM 40.2944 -73.5392 40° Northeast 410 472 17,700 -950 Descending Boston Center
Tue 01:39:31 AM 40.3889 -73.4508 35° Northeast 410 472 17,000 -350 Descending Boston Center
Tue 01:40:31 AM 40.4997 -73.4144 14° North 403 464 17,000  Level Boston Center
Tue 01:41:31 AM 40.6086 -73.3722 16° North 408 470 17,000 -755 Level Boston Center
Tue 01:43:10 AM 40.7667 -73.3167 15° North 323 372 15,000 -906 Descending New York TRACON
Tue 01:44:10 AM 40.8333 -73.2333 43° Northeast 311 358 14,600 -1,524 Descending New York TRACON
Tue 01:45:16 AM 40.9167 -73.2333 360° North 287 330 11,800 -2,650 Descending New York TRACON
Tue 01:46:10 AM 41.0000 -73.2333 360° North 284 327 9,300 -2,667 Descending New York TRACON
Tue 01:47:04 AM 41.0333 -73.2833 311° West 288 331 7,000 -2,368 Descending New York TRACON
Tue 01:48:04 AM 41.0333 -73.3833 270° West 264 304 4,800 -2,053 Descending New York TRACON
Tue 01:48:58 AM 41.0333 -73.4667 270° West 222 255 3,100 -1,421 Descending New York TRACON
Tue 01:49:58 AM 41.0167 -73.5333 252° West 196 226 2,100 -1,000 Descending New York TRACON

Login

Don't have an account? Register now (free) for customized features, flight alerts, and more!